Terminal Aerodrome Forecast
Issued by NWS

Home | Current Version | Previous Version | Text Only | Print | Product List | Glossary On
Versions: 1 2 3 4 5 6 7 8 9 10 11 12 13 14 15 16 17 18 19
554
FTUS43 KGRR 071740
TAFAZO
TAF
KAZO 071740Z 0718/0818 25013G22KT P6SM BKN025
     FM072100 25013G22KT P6SM BKN015
     FM081200 27014G25KT P6SM -SHSN OVC015
     FM081700 27015G26KT 1SM -SHSN BR OVC010=

USA.gov is the U.S. government's official web portal to all federal, state and local government web resources and services.